GP di Sardegna

MXGP 2021. GP di Sardegna: successo di Jeffrey Herlings, caduta di Tony Cairoli in qualifica

- Terza vittoria di fila per l'olandese della Ktm, nuovo leader del Mondiale, davanti a Prado e Febvre. Cairoli non si schiera in gara dopo una caduta in qualifica. In MX2 affermazione del francese Vialle, seguito dal connazionale Renaux e de Wolf. 11esimo Guadagnini

La decima tappa del Mondiale Motocross 2021 si è disputata in Sardegna, sul tracciato di Riola Sardo.

Jeffrey Herlings si conferma in grandissima forma e, dopo le due prove turche, si porta a casa anche il GP di Sardegna, conquistando entrambe le manche e balzando in testa alla classifica della MXGP.

Alle sue spalle chiudono, sia in Gara1 sia in Gara2, lo spagnolo Jorge Prado e il francese Romain Febvre. L'ex tabella rossa Tim Gajser è solo 12esimo di tappa.

Tony Cairoli, fresco di annuncio del ritiro, non ha preso il via alle due manche dopo una caduta nelle qualifiche.

Nel Mondiale Herlings ora conduce con 371 punti, un solo punto davanti a Gajser a 370. Febvre è terzo a 367, mentre Prado (359) supera Cairoli (326). 

GP di Sardegna complicato per i colori italiani, con Alberto Forato 21esimo e Alessandro Lupino 22esimo.

GP di Sardegna - MXGP - La classifica della prima manche (primi 20)

Pos Nr Rider Nat. Fed. Bike Time laps Diff. First Diff. Prev. Bestlaptime in lap Speed
1 84 Herlings, Jeffrey NED KNMV KTM 35:22.630 19 0:00.000 0:00.000 1:48.783 5 57.913
2 61 Prado, Jorge ESP RFME KTM 36:05.049 19 0:42.419 0:42.419 1:50.028 5 57.258
3 3 Febvre, Romain FRA FFM Kawasaki 36:15.640 19 0:53.010 0:10.591 1:50.944 2 56.785
4 10 Vlaanderen, Calvin NED KNMV Yamaha 36:18.623 19 0:55.993 0:02.983 1:51.304 5 56.602
5 189 Bogers, Brian NED KNMV GASGAS 36:24.883 19 1:02.253 0:06.260 1:51.076 6 56.718
6 91 Seewer, Jeremy SUI FMS Yamaha 36:28.319 19 1:05.689 0:03.436 1:51.188 2 56.661
7 919 Watson, Ben GBR ACU Yamaha 36:28.903 19 1:06.273 0:00.584 1:51.489 2 56.508
8 19 Olsen, Thomas Kjer DEN DMU Husqvarna 36:32.695 19 1:10.065 0:03.792 1:51.962 3 56.269
9 7 Jasikonis, Arminas LTU LMSF Husqvarna 36:35.608 19 1:12.978 0:02.913 1:52.376 4 56.062
10 259 Coldenhoff, Glenn NED KNMV Yamaha 36:40.647 19 1:18.017 0:05.039 1:53.184 6 55.662
11 16 Paturel, Benoit FRA FFM Honda 36:55.609 19 1:32.979 0:14.962 1:52.966 4 55.769
12 24 Simpson, Shaun GBR ACU KTM 37:01.379 19 1:38.749 0:05.770 1:52.989 6 55.758
13 41 Jonass, Pauls LAT LAMSF GASGAS 37:03.755 19 1:41.125 0:02.376 1:52.780 4 55.861
14 29 Jacobi, Henry GER DMSB Honda 37:08.641 19 1:46.011 0:04.886 1:53.647 4 55.435
15 22 Strijbos, Kevin BEL FMB Yamaha 37:11.265 19 1:48.635 0:02.624 1:53.269 4 55.62
16 4 Tonus, Arnaud SUI FMS Yamaha 37:16.630 19 1:54.000 0:05.365 1:54.653 5 54.948
17 226 Koch, Tom GER DMSB KTM 37:21.841 19 1:59.211 0:05.211 1:54.298 6 55.119
18 32 Van doninck, Brent BEL FMB Yamaha 34:40.145 18 1 lap 1 lap 1:53.364 7 55.573
19 243 Gajser, Tim SLO AMZS Honda 35:23.459 18 1 lap 0:43.314 1:55.234 3 54.671
20 161 Östlund, Alvin SWE SVEMO Yamaha 35:30.931 18 1 lap 0:07.472 1:54.701 6 54.925

GP di Sardegna - MXGP - La classifica della seconda manche (primi 20)

Pos Nr Rider Nat. Fed. Bike Time laps Diff. First Diff. Prev. Bestlaptime in lap Speed
1 84 Herlings, Jeffrey NED KNMV KTM 34:10.289 18 0:00.000 0:00.000 1:51.532 4 56.486
2 61 Prado, Jorge ESP RFME KTM 34:15.999 18 0:05.710 0:05.710 1:51.744 4 56.379
3 3 Febvre, Romain FRA FFM Kawasaki 34:18.695 18 0:08.406 0:02.696 1:51.165 3 56.673
4 10 Vlaanderen, Calvin NED KNMV Yamaha 34:57.080 18 0:46.791 0:38.385 1:54.091 3 55.219
5 91 Seewer, Jeremy SUI FMS Yamaha 35:05.273 18 0:54.984 0:08.193 1:55.036 3 54.765
6 41 Jonass, Pauls LAT LAMSF GASGAS 35:06.222 18 0:55.933 0:00.949 1:53.273 4 55.618
7 919 Watson, Ben GBR ACU Yamaha 35:08.994 18 0:58.705 0:02.772 1:54.117 3 55.206
8 243 Gajser, Tim SLO AMZS Honda 35:12.770 18 1:02.481 0:03.776 1:55.272 4 54.653
9 189 Bogers, Brian NED KNMV GASGAS 35:21.599 18 1:11.310 0:08.829 1:54.471 4 55.036
10 259 Coldenhoff, Glenn NED KNMV Yamaha 35:24.766 18 1:14.477 0:03.167 1:53.671 5 55.423
11 32 Van doninck, Brent BEL FMB Yamaha 35:30.829 18 1:20.540 0:06.063 1:54.819 4 54.869
12 24 Simpson, Shaun GBR ACU KTM 35:34.287 18 1:23.998 0:03.458 1:54.794 3 54.881
13 19 Olsen, Thomas Kjer DEN DMU Husqvarna 35:42.374 18 1:32.085 0:08.087 1:56.129 5 54.25
14 29 Jacobi, Henry GER DMSB Honda 35:50.706 18 1:40.417 0:08.332 1:54.631 5 54.959
15 811 Sterry, Adam GBR ACU KTM 35:54.484 18 1:44.195 0:03.778 1:55.768 5 54.419
16 303 Forato, Alberto ITA FMI GASGAS 36:03.590 18 1:53.301 0:09.106 1:54.854 4 54.852
17 226 Koch, Tom GER DMSB KTM 36:04.256 18 1:53.967 0:00.666 1:56.591 6 54.035
18 77 Lupino, Alessandro ITA FMI KTM 34:13.569 17 1 lap 1 lap 1:57.854 7 53.456
19 4 Tonus, Arnaud SUI FMS Yamaha 34:20.540 17 1 lap 0:06.971 1:57.223 7 53.744
20 161 Östlund, Alvin SWE SVEMO Yamaha 34:21.014 17 1 lap 0:00.474 1:56.802 6 53.937

GP di Sardegna - MXGP - La classifica del GP (primi 20)

Pos Nr Rider Nat. Fed. Bike Race 1 Race 2 Total
1 84 Herlings, Jeffrey NED KNMV KTM 25 25 50
2 61 Prado, Jorge ESP RFME KTM 22 22 44
3 3 Febvre, Romain FRA FFM KAW 20 20 40
4 10 Vlaanderen, Calvin NED KNMV YAM 18 18 36
5 91 Seewer, Jeremy SUI FMS YAM 15 16 31
6 919 Watson, Ben GBR ACU YAM 14 14 28
7 189 Bogers, Brian NED KNMV GAS 16 12 28
8 41 Jonass, Pauls LAT LAMSF GAS 8 15 23
9 259 Coldenhoff, Glenn NED KNMV YAM 11 11 22
10 19 Olsen, Thomas Kjer DEN DMU HUS 13 8 21
11 24 Simpson, Shaun GBR ACU KTM 9 9 18
12 243 Gajser, Tim SLO AMZS HON 2 13 15
13 29 Jacobi, Henry GER DMSB HON 7 7 14
14 32 Van doninck, Brent BEL FMB YAM 3 10 13
15 7 Jasikonis, Arminas LTU LMSF HUS 12 0 12
16 16 Paturel, Benoit FRA FFM HON 10 0 10
17 226 Koch, Tom GER DMSB KTM 4 4 8
18 4 Tonus, Arnaud SUI FMS YAM 5 2 7
19 811 Sterry, Adam GBR ACU KTM 0 6 6
20 22 Strijbos, Kevin BEL FMB YAM 6 0 6

MX2

Tris anche in MX2 per Tom Vialle, che vince la tappa sarda, dopo aver conquistato le due gare di Afyon. Secondo è Maxime Renaux, terzo Kay de Wolf.

Mattia Guadagnini coglie il terzo posto in Gara1, ma si ritira nella seguente e termina 11esimo la prova di casa

Renaux, come al solito, se non vince sale comunque sul podio e così consolida il primo posto iridato: ora guida la classifica a quota 403 punti, seguito da Guadagnini a 332. Terzo è il belga Jago Geerts con 325 punti, oggi quarto di tappa. Vialle paga gli zeri della prima parte di stagione, ed è sesto con 277 punti.

Tra gli italiani, Andrea Adamo chiude il GP sardo al 17esimo posto.

Prossima prova del calendario iridato, domenica 3 ottobre in Germania, a Teutschenthal.

GP di Sardegna - MX2 - La classifica della prima manche (primi 20)

Pos Nr Rider Nat. Fed. Bike Time laps Diff. First Diff. Prev. Bestlaptime in lap Speed
1 28 Vialle, Tom FRA FFM KTM 34:04.946 18 0:00.000 0:00.000 1:50.875 3 56.821
2 959 Renaux, Maxime FRA FFM Yamaha 34:06.063 18 0:01.117 0:01.117 1:51.798 3 56.352
3 101 Guadagnini, Mattia ITA FMI KTM 34:24.711 18 0:19.765 0:18.648 1:51.026 3 56.743
4 74 de Wolf, Kay NED KNMV Husqvarna 34:28.244 18 0:23.298 0:03.533 1:52.164 8 56.168
5 198 Benistant, Thibault FRA FFM Yamaha 34:28.504 18 0:23.558 0:00.260 1:51.983 3 56.259
6 517 Gifting, Isak SWE SVEMO GASGAS 34:52.844 18 0:47.898 0:24.340 1:52.797 3 55.853
7 20 Todd, Wilson AUS ACU Kawasaki 34:55.225 18 0:50.279 0:02.381 1:53.651 4 55.433
8 93 Geerts, Jago BEL FMB Yamaha 34:55.730 18 0:50.784 0:00.505 1:48.899 2 57.852
9 711 Hofer, Rene AUT AMF KTM 34:58.655 18 0:53.709 0:02.925 1:51.288 4 56.61
10 426 Mewse, Conrad GBR ACU KTM 35:05.999 18 1:01.053 0:07.344 1:53.019 4 55.743
11 516 Laengenfelder, Simon GER DMSB GASGAS 35:13.730 18 1:08.784 0:07.731 1:53.041 3 55.732
12 39 Van De Moosdijk, Roan NED KNMV Kawasaki 35:18.205 18 1:13.259 0:04.475 1:54.209 8 55.162
13 14 Beaton, Jed AUS MA Husqvarna 35:29.444 18 1:24.498 0:11.239 1:55.536 4 54.528
14 172 Boisrame, Mathys FRA FFM Kawasaki 35:35.268 18 1:30.322 0:05.824 1:55.785 8 54.411
15 11 Haarup, Mikkel DEN DMU Kawasaki 35:37.641 18 1:32.695 0:02.373 1:55.754 4 54.426
16 72 Everts, Liam BEL FMB KTM 36:00.197 18 1:55.251 0:22.556 1:56.520 4 54.068
17 253 Pancar, Jan SLO AMZS KTM 36:01.259 18 1:56.313 0:01.062 1:57.691 4 53.53
18 69 Olsson, Filip SWE SVEMO Husqvarna 36:21.235 18 2:16.289 0:19.976 1:56.075 3 54.275
19 313 Polak, Petr CZE ACCR Yamaha 34:18.414 17 1 lap 1 lap 1:56.499 3 54.078
20 80 Adamo, Andrea ITA FMI GASGAS 34:35.302 17 1 lap 0:16.888 1:56.009 2 54.306

GP di Sardegna - MX2 - La classifica della seconda manche (primi 20)

Pos Nr Rider Nat. Fed. Bike Time laps Diff. First Diff. Prev. Bestlaptime in lap Speed
1 28 Vialle, Tom FRA FFM KTM 34:35.642 18 0:00.000 0:00.000 1:52.458 4 56.021
2 93 Geerts, Jago BEL FMB Yamaha 34:43.906 18 0:08.264 0:08.264 1:52.902 6 55.801
3 959 Renaux, Maxime FRA FFM Yamaha 35:04.558 18 0:28.916 0:20.652 1:52.711 3 55.895
4 74 de Wolf, Kay NED KNMV Husqvarna 35:26.144 18 0:50.502 0:21.586 1:52.600 3 55.95
5 14 Beaton, Jed AUS MA Husqvarna 35:29.150 18 0:53.508 0:03.006 1:54.097 3 55.216
6 517 Gifting, Isak SWE SVEMO GASGAS 35:33.135 18 0:57.493 0:03.985 1:53.806 4 55.357
7 39 Van De Moosdijk, Roan NED KNMV Kawasaki 35:42.930 18 1:07.288 0:09.795 1:54.315 4 55.111
8 198 Benistant, Thibault FRA FFM Yamaha 35:50.725 18 1:15.083 0:07.795 1:53.127 3 55.69
9 426 Mewse, Conrad GBR ACU KTM 36:07.094 18 1:31.452 0:16.369 1:56.409 6 54.12
10 403 Boegh Damm, Bastian DEN DMU KTM 36:17.656 18 1:42.014 0:10.562 1:53.465 2 55.524
11 72 Everts, Liam BEL FMB KTM 36:20.197 18 1:44.555 0:02.541 1:56.456 5 54.098
12 253 Pancar, Jan SLO AMZS KTM 36:20.845 18 1:45.203 0:00.648 1:57.232 7 53.74
13 80 Adamo, Andrea ITA FMI GASGAS 34:37.056 17 1 lap 1 lap 1:57.274 6 53.72
14 711 Hofer, Rene AUT AMF KTM 34:39.271 17 1 lap 0:02.215 1:55.873 3 54.37
15 20 Todd, Wilson AUS ACU Kawasaki 34:40.796 17 1 lap 0:01.525 1:58.105 3 53.342
16 87 Brumann, Kevin SUI FMS Yamaha 34:54.101 17 1 lap 0:13.305 1:57.486 3 53.623
17 229 Scuteri, Emilio ITA FMI TM 35:01.510 17 1 lap 0:07.409 1:57.655 3 53.546
18 69 Olsson, Filip SWE SVEMO Husqvarna 35:17.823 17 1 lap 0:16.313 1:58.348 4 53.233
19 912 Rizzi, Joel GBR FFM Honda 35:28.377 17 1 lap 0:10.554 1:59.514 4 52.713
20 667 Nordström Graaf, Anton SWE SVEMO Yamaha 36:19.865 17 1 lap 0:51.488 2:02.386 3 51.476

GP di Sardegna - MX2 - La classifica del GP (primi 20)

Pos Nr Rider Nat. Fed. Bike Race 1 Race 2 Total
1 28 Vialle, Tom FRA FFM KTM 25 25 50
2 959 Renaux, Maxime FRA FFM YAM 22 20 42
3 74 de Wolf, Kay NED KNMV HUS 18 18 36
4 93 Geerts, Jago BEL FMB YAM 13 22 35
5 517 Gifting, Isak SWE SVEMO GAS 15 15 30
6 198 Benistant, Thibault FRA FFM YAM 16 13 29
7 14 Beaton, Jed AUS MA HUS 8 16 24
8 39 Van De Moosdijk, Roan NED KNMV KAW 9 14 23
9 426 Mewse, Conrad GBR ACU KTM 11 12 23
10 20 Todd, Wilson AUS ACU KAW 14 6 20
11 101 Guadagnini, Mattia ITA FMI KTM 20 0 20
12 711 Hofer, Rene AUT AMF KTM 12 7 19
13 72 Everts, Liam BEL FMB KTM 5 10 15
14 253 Pancar, Jan SLO AMZS KTM 4 9 13
15 403 Boegh Damm, Bastian DEN DMU KTM 0 11 11
16 516 Laengenfelder, Simon GER DMSB GAS 10 0 10
17 80 Adamo, Andrea ITA FMI GAS 1 8 9
18 172 Boisrame, Mathys FRA FFM KAW 7 0 7
19 69 Olsson, Filip SWE SVEMO HUS 3 3 6
20 11 Haarup, Mikkel DEN DMU KAW 6 0 6
  • NoMarty, Sorbolo (PR)

    Ho ancora davanti agli occhi il sorpasso di Herlings su Prado nella seconda manche...
  • coccobill01, Varese (VA)

    Mamma mia che pistaccia! Secondo me non all'altezza di ospitare una prova mondiale ....
Inserisci il tuo commento